sensor_id;sensor_type;location;lat;lon;timestamp;temperature;humidity
3067;DHT22;1544;48.834;9.194;2023-04-05T00:02:29;2.80;28.00
3067;DHT22;1544;48.834;9.194;2023-04-05T00:05:05;2.80;28.00
3067;DHT22;1544;48.834;9.194;2023-04-05T00:07:42;2.80;28.10
3067;DHT22;1544;48.834;9.194;2023-04-05T00:10:21;2.80;28.20
3067;DHT22;1544;48.834;9.194;2023-04-05T00:12:57;2.70;28.20
3067;DHT22;1544;48.834;9.194;2023-04-05T00:15:32;2.70;28.30
3067;DHT22;1544;48.834;9.194;2023-04-05T00:18:07;2.70;28.30
3067;DHT22;1544;48.834;9.194;2023-04-05T00:20:42;2.70;28.30
3067;DHT22;1544;48.834;9.194;2023-04-05T00:23:17;2.70;28.40
3067;DHT22;1544;48.834;9.194;2023-04-05T00:25:52;2.70;28.40
3067;DHT22;1544;48.834;9.194;2023-04-05T00:28:27;2.70;28.40
3067;DHT22;1544;48.834;9.194;2023-04-05T00:31:03;2.70;28.40
3067;DHT22;1544;48.834;9.194;2023-04-05T00:33:39;2.70;28.50
3067;DHT22;1544;48.834;9.194;2023-04-05T00:36:19;2.70;28.40
3067;DHT22;1544;48.834;9.194;2023-04-05T00:38:54;2.60;28.40
3067;DHT22;1544;48.834;9.194;2023-04-05T00:41:29;2.60;28.40
3067;DHT22;1544;48.834;9.194;2023-04-05T00:44:04;2.60;28.40
3067;DHT22;1544;48.834;9.194;2023-04-05T00:46:40;2.60;28.40
3067;DHT22;1544;48.834;9.194;2023-04-05T00:49:16;2.50;28.40
3067;DHT22;1544;48.834;9.194;2023-04-05T00:51:51;2.50;28.40
3067;DHT22;1544;48.834;9.194;2023-04-05T00:54:28;2.50;28.40
3067;DHT22;1544;48.834;9.194;2023-04-05T00:57:03;2.50;28.40
3067;DHT22;1544;48.834;9.194;2023-04-05T00:59:40;2.50;28.50
3067;DHT22;1544;48.834;9.194;2023-04-05T01:02:26;2.50;28.50
3067;DHT22;1544;48.834;9.194;2023-04-05T01:05:11;2.40;28.50
3067;DHT22;1544;48.834;9.194;2023-04-05T01:08:17;2.40;28.50
3067;DHT22;1544;48.834;9.194;2023-04-05T01:11:00;2.30;28.50
3067;DHT22;1544;48.834;9.194;2023-04-05T01:13:37;2.30;28.60
3067;DHT22;1544;48.834;9.194;2023-04-05T01:16:13;2.30;28.60
3067;DHT22;1544;48.834;9.194;2023-04-05T01:18:48;2.30;28.60
3067;DHT22;1544;48.834;9.194;2023-04-05T01:30:38;2.30;28.80
3067;DHT22;1544;48.834;9.194;2023-04-05T01:33:45;2.30;28.80
3067;DHT22;1544;48.834;9.194;2023-04-05T01:39:09;2.30;28.90
3067;DHT22;1544;48.834;9.194;2023-04-05T01:41:46;2.20;28.90
3067;DHT22;1544;48.834;9.194;2023-04-05T01:44:21;2.20;28.90
3067;DHT22;1544;48.834;9.194;2023-04-05T01:46:56;2.20;29.00
3067;DHT22;1544;48.834;9.194;2023-04-05T01:49:31;2.20;29.30
3067;DHT22;1544;48.834;9.194;2023-04-05T01:52:06;2.20;29.10
3067;DHT22;1544;48.834;9.194;2023-04-05T01:54:41;2.10;29.20
3067;DHT22;1544;48.834;9.194;2023-04-05T01:57:16;2.10;29.20
3067;DHT22;1544;48.834;9.194;2023-04-05T01:59:52;2.10;29.30
3067;DHT22;1544;48.834;9.194;2023-04-05T02:02:27;2.10;29.20
3067;DHT22;1544;48.834;9.194;2023-04-05T02:05:02;2.10;29.20
3067;DHT22;1544;48.834;9.194;2023-04-05T02:07:37;2.10;29.30
3067;DHT22;1544;48.834;9.194;2023-04-05T02:10:14;2.10;29.30
3067;DHT22;1544;48.834;9.194;2023-04-05T02:12:49;2.00;29.20
3067;DHT22;1544;48.834;9.194;2023-04-05T02:15:24;2.10;29.30
3067;DHT22;1544;48.834;9.194;2023-04-05T02:18:00;2.00;29.20
3067;DHT22;1544;48.834;9.194;2023-04-05T02:20:38;2.00;29.20
3067;DHT22;1544;48.834;9.194;2023-04-05T02:23:13;2.00;29.10
3067;DHT22;1544;48.834;9.194;2023-04-05T02:25:48;2.00;29.10
3067;DHT22;1544;48.834;9.194;2023-04-05T02:28:23;2.00;29.20
3067;DHT22;1544;48.834;9.194;2023-04-05T02:31:00;2.00;29.20
3067;DHT22;1544;48.834;9.194;2023-04-05T02:33:36;2.00;29.30
3067;DHT22;1544;48.834;9.194;2023-04-05T02:36:11;2.00;29.30
3067;DHT22;1544;48.834;9.194;2023-04-05T02:38:47;1.90;29.30
3067;DHT22;1544;48.834;9.194;2023-04-05T02:41:22;1.80;29.30
3067;DHT22;1544;48.834;9.194;2023-04-05T02:43:58;1.90;29.40
3067;DHT22;1544;48.834;9.194;2023-04-05T02:46:37;1.90;29.40
3067;DHT22;1544;48.834;9.194;2023-04-05T02:49:12;1.90;29.40
3067;DHT22;1544;48.834;9.194;2023-04-05T02:51:47;1.80;29.40
3067;DHT22;1544;48.834;9.194;2023-04-05T02:54:22;1.80;29.50
3067;DHT22;1544;48.834;9.194;2023-04-05T02:57:03;1.80;29.50
3067;DHT22;1544;48.834;9.194;2023-04-05T02:59:48;1.80;29.70
3067;DHT22;1544;48.834;9.194;2023-04-05T03:02:23;1.70;29.70
3067;DHT22;1544;48.834;9.194;2023-04-05T03:04:59;1.70;29.80
3067;DHT22;1544;48.834;9.194;2023-04-05T03:07:39;1.70;29.80
3067;DHT22;1544;48.834;9.194;2023-04-05T03:10:20;1.70;29.80
3067;DHT22;1544;48.834;9.194;2023-04-05T03:13:01;1.70;29.80
3067;DHT22;1544;48.834;9.194;2023-04-05T03:15:37;1.60;29.80
3067;DHT22;1544;48.834;9.194;2023-04-05T03:18:17;1.60;29.80
3067;DHT22;1544;48.834;9.194;2023-04-05T03:20:52;1.60;29.80
3067;DHT22;1544;48.834;9.194;2023-04-05T03:23:31;1.50;29.80
3067;DHT22;1544;48.834;9.194;2023-04-05T03:26:08;1.50;29.90
3067;DHT22;1544;48.834;9.194;2023-04-05T03:28:47;1.50;30.00
3067;DHT22;1544;48.834;9.194;2023-04-05T03:31:24;1.50;30.00
3067;DHT22;1544;48.834;9.194;2023-04-05T03:34:02;1.40;30.00
3067;DHT22;1544;48.834;9.194;2023-04-05T03:36:45;1.40;30.00
3067;DHT22;1544;48.834;9.194;2023-04-05T03:39:32;1.40;30.00
3067;DHT22;1544;48.834;9.194;2023-04-05T03:42:07;1.30;30.00
3067;DHT22;1544;48.834;9.194;2023-04-05T03:44:42;1.30;30.00
3067;DHT22;1544;48.834;9.194;2023-04-05T03:47:17;1.30;30.10
3067;DHT22;1544;48.834;9.194;2023-04-05T03:49:52;1.20;30.10
3067;DHT22;1544;48.834;9.194;2023-04-05T03:52:28;1.20;30.10
3067;DHT22;1544;48.834;9.194;2023-04-05T03:55:04;1.20;30.10
3067;DHT22;1544;48.834;9.194;2023-04-05T03:57:42;1.20;30.10
3067;DHT22;1544;48.834;9.194;2023-04-05T04:00:28;1.10;30.10
3067;DHT22;1544;48.834;9.194;2023-04-05T04:03:29;1.10;30.10
3067;DHT22;1544;48.834;9.194;2023-04-05T04:06:06;1.10;30.20
3067;DHT22;1544;48.834;9.194;2023-04-05T04:08:41;1.00;30.10
3067;DHT22;1544;48.834;9.194;2023-04-05T04:11:16;1.00;30.20
3067;DHT22;1544;48.834;9.194;2023-04-05T04:13:51;0.90;30.20
3067;DHT22;1544;48.834;9.194;2023-04-05T04:16:43;0.90;30.30
3067;DHT22;1544;48.834;9.194;2023-04-05T04:19:36;0.80;30.30
3067;DHT22;1544;48.834;9.194;2023-04-05T04:22:29;0.80;30.30
3067;DHT22;1544;48.834;9.194;2023-04-05T04:25:36;0.00;29.90
3067;DHT22;1544;48.834;9.194;2023-04-05T04:28:39;0.70;30.40
3067;DHT22;1544;48.834;9.194;2023-04-05T04:31:46;0.70;30.50
3067;DHT22;1544;48.834;9.194;2023-04-05T04:34:42;0.70;30.50
3067;DHT22;1544;48.834;9.194;2023-04-05T04:37:38;0.60;30.40
3067;DHT22;1544;48.834;9.194;2023-04-05T04:40:38;0.60;30.50
3067;DHT22;1544;48.834;9.194;2023-04-05T04:43:49;0.60;30.60
3067;DHT22;1544;48.834;9.194;2023-04-05T04:47:02;0.60;30.80
3067;DHT22;1544;48.834;9.194;2023-04-05T04:50:13;0.60;30.80
3067;DHT22;1544;48.834;9.194;2023-04-05T04:52:49;0.70;30.90
3067;DHT22;1544;48.834;9.194;2023-04-05T04:55:24;0.60;30.80
3067;DHT22;1544;48.834;9.194;2023-04-05T04:58:02;0.70;31.00
3067;DHT22;1544;48.834;9.194;2023-04-05T05:00:43;0.70;31.00
3067;DHT22;1544;48.834;9.194;2023-04-05T05:03:19;0.70;31.00
3067;DHT22;1544;48.834;9.194;2023-04-05T05:05:56;0.70;31.10
3067;DHT22;1544;48.834;9.194;2023-04-05T05:08:36;0.70;31.10
3067;DHT22;1544;48.834;9.194;2023-04-05T05:11:11;0.70;31.30
3067;DHT22;1544;48.834;9.194;2023-04-05T05:13:46;1.80;32.10
3067;DHT22;1544;48.834;9.194;2023-04-05T05:16:29;0.80;31.40
3067;DHT22;1544;48.834;9.194;2023-04-05T05:19:04;0.80;31.50
3067;DHT22;1544;48.834;9.194;2023-04-05T05:21:51;0.80;31.50
3067;DHT22;1544;48.834;9.194;2023-04-05T05:24:27;0.80;31.50
3067;DHT22;1544;48.834;9.194;2023-04-05T05:27:02;0.80;31.50
3067;DHT22;1544;48.834;9.194;2023-04-05T05:29:37;0.80;31.50
3067;DHT22;1544;48.834;9.194;2023-04-05T05:32:12;0.80;31.50
3067;DHT22;1544;48.834;9.194;2023-04-05T05:34:49;0.90;31.70
3067;DHT22;1544;48.834;9.194;2023-04-05T05:37:31;0.90;31.70
3067;DHT22;1544;48.834;9.194;2023-04-05T05:40:08;0.90;31.70
3067;DHT22;1544;48.834;9.194;2023-04-05T05:42:46;0.90;31.70
3067;DHT22;1544;48.834;9.194;2023-04-05T05:45:21;1.00;31.80
3067;DHT22;1544;48.834;9.194;2023-04-05T05:47:56;1.00;31.90
3067;DHT22;1544;48.834;9.194;2023-04-05T05:50:31;1.00;31.80
3067;DHT22;1544;48.834;9.194;2023-04-05T05:53:06;1.00;31.80
3067;DHT22;1544;48.834;9.194;2023-04-05T05:55:41;1.00;31.80
3067;DHT22;1544;48.834;9.194;2023-04-05T05:58:17;1.10;32.00
3067;DHT22;1544;48.834;9.194;2023-04-05T06:00:54;1.10;32.10
3067;DHT22;1544;48.834;9.194;2023-04-05T06:03:30;1.10;32.10
3067;DHT22;1544;48.834;9.194;2023-04-05T06:06:08;1.20;32.10
3067;DHT22;1544;48.834;9.194;2023-04-05T06:08:45;1.30;32.00
3067;DHT22;1544;48.834;9.194;2023-04-05T06:11:21;1.30;31.90
3067;DHT22;1544;48.834;9.194;2023-04-05T06:13:59;1.40;31.90
3067;DHT22;1544;48.834;9.194;2023-04-05T06:16:34;1.40;31.80
3067;DHT22;1544;48.834;9.194;2023-04-05T06:19:10;1.50;31.70
3067;DHT22;1544;48.834;9.194;2023-04-05T06:21:45;1.50;31.60
3067;DHT22;1544;48.834;9.194;2023-04-05T06:24:20;1.60;31.60
3067;DHT22;1544;48.834;9.194;2023-04-05T06:26:55;1.60;31.50
3067;DHT22;1544;48.834;9.194;2023-04-05T06:29:31;1.70;31.50
3067;DHT22;1544;48.834;9.194;2023-04-05T06:32:06;1.70;31.40
3067;DHT22;1544;48.834;9.194;2023-04-05T06:34:41;1.70;31.40
3067;DHT22;1544;48.834;9.194;2023-04-05T06:37:19;1.80;31.40
3067;DHT22;1544;48.834;9.194;2023-04-05T06:39:54;1.80;31.30
3067;DHT22;1544;48.834;9.194;2023-04-05T06:42:29;1.90;31.40
3067;DHT22;1544;48.834;9.194;2023-04-05T06:45:10;1.90;31.40
3067;DHT22;1544;48.834;9.194;2023-04-05T06:47:45;1.90;31.30
3067;DHT22;1544;48.834;9.194;2023-04-05T06:50:20;2.00;31.30
3067;DHT22;1544;48.834;9.194;2023-04-05T06:52:56;2.00;31.20
3067;DHT22;1544;48.834;9.194;2023-04-05T06:55:31;2.10;31.20
3067;DHT22;1544;48.834;9.194;2023-04-05T06:58:06;2.10;31.10
3067;DHT22;1544;48.834;9.194;2023-04-05T07:00:41;2.20;31.00
3067;DHT22;1544;48.834;9.194;2023-04-05T07:03:17;2.20;30.80
3067;DHT22;1544;48.834;9.194;2023-04-05T07:05:56;2.20;30.70
3067;DHT22;1544;48.834;9.194;2023-04-05T07:08:35;2.20;30.50
3067;DHT22;1544;48.834;9.194;2023-04-05T07:11:12;2.30;30.10
3067;DHT22;1544;48.834;9.194;2023-04-05T07:13:47;2.40;30.00
3067;DHT22;1544;48.834;9.194;2023-04-05T07:16:22;2.50;29.90
3067;DHT22;1544;48.834;9.194;2023-04-05T07:18:57;2.50;29.60
3067;DHT22;1544;48.834;9.194;2023-04-05T07:21:32;2.60;29.70
3067;DHT22;1544;48.834;9.194;2023-04-05T07:24:07;2.70;29.60
3067;DHT22;1544;48.834;9.194;2023-04-05T07:26:42;2.70;29.50
3067;DHT22;1544;48.834;9.194;2023-04-05T07:29:17;4.40;30.60
3067;DHT22;1544;48.834;9.194;2023-04-05T07:31:53;2.90;29.60
3067;DHT22;1544;48.834;9.194;2023-04-05T07:34:28;3.10;29.60
3067;DHT22;1544;48.834;9.194;2023-04-05T07:37:04;3.10;29.40
3067;DHT22;1544;48.834;9.194;2023-04-05T07:39:39;3.20;29.30
3067;DHT22;1544;48.834;9.194;2023-04-05T07:42:14;3.40;29.30
3067;DHT22;1544;48.834;9.194;2023-04-05T07:44:51;3.50;29.10
3067;DHT22;1544;48.834;9.194;2023-04-05T07:47:26;3.60;29.00
3067;DHT22;1544;48.834;9.194;2023-04-05T07:50:02;3.60;29.10
3067;DHT22;1544;48.834;9.194;2023-04-05T07:52:37;3.80;29.10
3067;DHT22;1544;48.834;9.194;2023-04-05T07:55:13;3.90;29.10
3067;DHT22;1544;48.834;9.194;2023-04-05T07:57:49;4.00;29.20
3067;DHT22;1544;48.834;9.194;2023-04-05T08:00:25;4.10;29.20
3067;DHT22;1544;48.834;9.194;2023-04-05T08:03:00;4.20;29.20
3067;DHT22;1544;48.834;9.194;2023-04-05T08:05:36;4.20;29.00
3067;DHT22;1544;48.834;9.194;2023-04-05T08:08:11;4.30;28.90
3067;DHT22;1544;48.834;9.194;2023-04-05T08:10:46;4.30;28.80
3067;DHT22;1544;48.834;9.194;2023-04-05T08:13:21;4.70;29.00
3067;DHT22;1544;48.834;9.194;2023-04-05T08:15:56;4.50;28.80
3067;DHT22;1544;48.834;9.194;2023-04-05T08:18:31;4.60;28.60
3067;DHT22;1544;48.834;9.194;2023-04-05T08:21:06;4.70;28.60
3067;DHT22;1544;48.834;9.194;2023-04-05T08:23:41;4.70;28.60
3067;DHT22;1544;48.834;9.194;2023-04-05T08:26:16;4.80;28.60
3067;DHT22;1544;48.834;9.194;2023-04-05T08:28:51;4.90;28.50
3067;DHT22;1544;48.834;9.194;2023-04-05T08:31:26;5.00;28.50
3067;DHT22;1544;48.834;9.194;2023-04-05T08:34:01;5.00;28.10
3067;DHT22;1544;48.834;9.194;2023-04-05T08:36:36;5.10;27.80
3067;DHT22;1544;48.834;9.194;2023-04-05T08:39:11;5.10;27.10
3067;DHT22;1544;48.834;9.194;2023-04-05T08:42:03;5.20;26.90
3067;DHT22;1544;48.834;9.194;2023-04-05T08:44:43;5.30;27.10
3067;DHT22;1544;48.834;9.194;2023-04-05T08:47:22;5.40;26.80
3067;DHT22;1544;48.834;9.194;2023-04-05T08:49:57;5.50;26.70
3067;DHT22;1544;48.834;9.194;2023-04-05T08:52:33;5.60;26.60
3067;DHT22;1544;48.834;9.194;2023-04-05T08:55:11;5.70;26.20
3067;DHT22;1544;48.834;9.194;2023-04-05T08:57:49;5.90;25.90
3067;DHT22;1544;48.834;9.194;2023-04-05T09:00:27;6.00;25.90
3067;DHT22;1544;48.834;9.194;2023-04-05T09:03:02;6.10;25.80
3067;DHT22;1544;48.834;9.194;2023-04-05T09:05:38;6.10;25.10
3067;DHT22;1544;48.834;9.194;2023-04-05T09:08:15;6.20;25.50
3067;DHT22;1544;48.834;9.194;2023-04-05T09:10:51;6.40;25.40
3067;DHT22;1544;48.834;9.194;2023-04-05T09:13:26;6.50;25.50
3067;DHT22;1544;48.834;9.194;2023-04-05T09:16:01;6.50;25.50
3067;DHT22;1544;48.834;9.194;2023-04-05T09:18:36;6.60;25.60
3067;DHT22;1544;48.834;9.194;2023-04-05T09:21:11;6.70;25.40
3067;DHT22;1544;48.834;9.194;2023-04-05T09:23:53;6.70;25.10
3067;DHT22;1544;48.834;9.194;2023-04-05T09:26:29;6.80;24.90
3067;DHT22;1544;48.834;9.194;2023-04-05T09:29:07;6.90;24.60
3067;DHT22;1544;48.834;9.194;2023-04-05T09:32:03;7.00;24.60
3067;DHT22;1544;48.834;9.194;2023-04-05T09:34:40;7.10;24.50
3067;DHT22;1544;48.834;9.194;2023-04-05T09:37:23;7.20;24.00
3067;DHT22;1544;48.834;9.194;2023-04-05T09:40:03;7.20;23.50
3067;DHT22;1544;48.834;9.194;2023-04-05T09:42:48;7.30;23.70
3067;DHT22;1544;48.834;9.194;2023-04-05T09:45:26;7.50;23.80
3067;DHT22;1544;48.834;9.194;2023-04-05T09:48:06;7.60;23.80
3067;DHT22;1544;48.834;9.194;2023-04-05T09:50:41;7.70;23.80
3067;DHT22;1544;48.834;9.194;2023-04-05T09:53:16;7.80;23.80
3067;DHT22;1544;48.834;9.194;2023-04-05T09:56:08;7.90;23.50
3067;DHT22;1544;48.834;9.194;2023-04-05T09:58:44;8.00;23.60
3067;DHT22;1544;48.834;9.194;2023-04-05T10:01:19;8.10;23.70
3067;DHT22;1544;48.834;9.194;2023-04-05T10:03:56;8.20;23.40
3067;DHT22;1544;48.834;9.194;2023-04-05T10:06:38;8.30;23.50
3067;DHT22;1544;48.834;9.194;2023-04-05T10:09:14;9.10;24.00
3067;DHT22;1544;48.834;9.194;2023-04-05T10:11:51;8.60;24.00
3067;DHT22;1544;48.834;9.194;2023-04-05T10:14:26;8.80;23.70
3067;DHT22;1544;48.834;9.194;2023-04-05T10:20:32;9.00;23.10
3067;DHT22;1544;48.834;9.194;2023-04-05T10:23:21;9.20;23.20
3067;DHT22;1544;48.834;9.194;2023-04-05T10:26:17;9.30;23.10
3067;DHT22;1544;48.834;9.194;2023-04-05T10:29:01;9.40;23.10
3067;DHT22;1544;48.834;9.194;2023-04-05T10:31:58;9.50;22.80
3067;DHT22;1544;48.834;9.194;2023-04-05T10:38:19;9.70;23.40
3067;DHT22;1544;48.834;9.194;2023-04-05T10:41:12;9.70;22.70
3067;DHT22;1544;48.834;9.194;2023-04-05T10:43:50;9.80;22.30
3067;DHT22;1544;48.834;9.194;2023-04-05T10:46:30;9.90;22.50
3067;DHT22;1544;48.834;9.194;2023-04-05T10:52:01;10.00;21.60
3067;DHT22;1544;48.834;9.194;2023-04-05T10:54:36;10.10;21.20
3067;DHT22;1544;48.834;9.194;2023-04-05T10:57:12;10.20;20.90
3067;DHT22;1544;48.834;9.194;2023-04-05T10:59:48;10.30;21.40
3067;DHT22;1544;48.834;9.194;2023-04-05T11:02:24;10.40;21.70
3067;DHT22;1544;48.834;9.194;2023-04-05T11:05:02;10.50;21.60
3067;DHT22;1544;48.834;9.194;2023-04-05T11:07:46;10.60;20.50
3067;DHT22;1544;48.834;9.194;2023-04-05T11:10:23;10.60;20.20
3067;DHT22;1544;48.834;9.194;2023-04-05T11:15:34;10.70;21.00
3067;DHT22;1544;48.834;9.194;2023-04-05T11:20:53;10.80;21.20
3067;DHT22;1544;48.834;9.194;2023-04-05T11:29:16;10.90;20.70
3067;DHT22;1544;48.834;9.194;2023-04-05T11:31:58;11.10;21.00
3067;DHT22;1544;48.834;9.194;2023-04-05T11:34:35;11.10;20.60
3067;DHT22;1544;48.834;9.194;2023-04-05T11:37:14;11.20;20.80
3067;DHT22;1544;48.834;9.194;2023-04-05T11:40:28;11.30;20.90
3067;DHT22;1544;48.834;9.194;2023-04-05T11:43:09;11.50;21.00
3067;DHT22;1544;48.834;9.194;2023-04-05T11:45:45;11.60;21.00
3067;DHT22;1544;48.834;9.194;2023-04-05T11:48:21;11.70;21.20
3067;DHT22;1544;48.834;9.194;2023-04-05T11:50:56;11.90;21.40
3067;DHT22;1544;48.834;9.194;2023-04-05T11:53:32;12.10;21.60
3067;DHT22;1544;48.834;9.194;2023-04-05T11:56:09;12.30;21.40
3067;DHT22;1544;48.834;9.194;2023-04-05T11:58:46;12.50;21.40
3067;DHT22;1544;48.834;9.194;2023-04-05T12:01:21;12.70;21.10
3067;DHT22;1544;48.834;9.194;2023-04-05T12:03:56;12.80;20.20
3067;DHT22;1544;48.834;9.194;2023-04-05T12:06:31;12.80;20.10
3067;DHT22;1544;48.834;9.194;2023-04-05T12:09:06;12.90;20.50
3067;DHT22;1544;48.834;9.194;2023-04-05T12:11:42;13.00;20.10
3067;DHT22;1544;48.834;9.194;2023-04-05T12:14:22;13.10;20.10
3067;DHT22;1544;48.834;9.194;2023-04-05T12:16:57;13.20;20.50
3067;DHT22;1544;48.834;9.194;2023-04-05T12:19:32;13.40;20.50
3067;DHT22;1544;48.834;9.194;2023-04-05T12:22:08;13.60;20.30
3067;DHT22;1544;48.834;9.194;2023-04-05T12:24:43;13.80;20.20
3067;DHT22;1544;48.834;9.194;2023-04-05T12:27:18;13.90;20.20
3067;DHT22;1544;48.834;9.194;2023-04-05T12:32:54;14.10;20.50
3067;DHT22;1544;48.834;9.194;2023-04-05T12:35:32;14.30;20.30
3067;DHT22;1544;48.834;9.194;2023-04-05T12:38:08;14.50;20.80
3067;DHT22;1544;48.834;9.194;2023-04-05T12:40:44;14.90;21.40
3067;DHT22;1544;48.834;9.194;2023-04-05T12:43:19;15.20;21.50
3067;DHT22;1544;48.834;9.194;2023-04-05T12:45:54;15.50;20.90
3067;DHT22;1544;48.834;9.194;2023-04-05T12:48:30;15.80;21.30
3067;DHT22;1544;48.834;9.194;2023-04-05T12:51:13;16.20;21.00
3067;DHT22;1544;48.834;9.194;2023-04-05T12:53:50;16.50;21.60
3067;DHT22;1544;48.834;9.194;2023-04-05T12:56:27;16.80;21.00
3067;DHT22;1544;48.834;9.194;2023-04-05T12:59:06;17.10;21.70
3067;DHT22;1544;48.834;9.194;2023-04-05T13:01:41;17.20;20.90
3067;DHT22;1544;48.834;9.194;2023-04-05T13:04:16;17.40;21.10
3067;DHT22;1544;48.834;9.194;2023-04-05T13:06:51;17.60;22.10
3067;DHT22;1544;48.834;9.194;2023-04-05T13:09:26;17.80;21.50
3067;DHT22;1544;48.834;9.194;2023-04-05T13:12:02;18.00;21.30
3067;DHT22;1544;48.834;9.194;2023-04-05T13:14:38;18.30;21.30
3067;DHT22;1544;48.834;9.194;2023-04-05T13:17:12;18.30;19.70
3067;DHT22;1544;48.834;9.194;2023-04-05T13:19:47;18.20;19.10
3067;DHT22;1544;48.834;9.194;2023-04-05T13:22:22;18.10;19.40
3067;DHT22;1544;48.834;9.194;2023-04-05T13:24:57;18.20;19.40
3067;DHT22;1544;48.834;9.194;2023-04-05T13:27:32;18.10;20.00
3067;DHT22;1544;48.834;9.194;2023-04-05T13:30:08;18.10;21.30
3067;DHT22;1544;48.834;9.194;2023-04-05T13:32:43;18.10;20.70
3067;DHT22;1544;48.834;9.194;2023-04-05T13:35:18;18.10;19.30
3067;DHT22;1544;48.834;9.194;2023-04-05T13:37:53;18.00;18.90
3067;DHT22;1544;48.834;9.194;2023-04-05T13:40:28;17.90;20.00
3067;DHT22;1544;48.834;9.194;2023-04-05T13:43:04;18.10;21.30
3067;DHT22;1544;48.834;9.194;2023-04-05T13:45:39;18.10;19.30
3067;DHT22;1544;48.834;9.194;2023-04-05T13:48:15;18.30;20.10
3067;DHT22;1544;48.834;9.194;2023-04-05T13:50:50;18.50;21.20
3067;DHT22;1544;48.834;9.194;2023-04-05T13:53:25;18.70;20.90
3067;DHT22;1544;48.834;9.194;2023-04-05T13:56:02;18.90;20.90
3067;DHT22;1544;48.834;9.194;2023-04-05T13:58:37;19.10;20.00
3067;DHT22;1544;48.834;9.194;2023-04-05T14:01:12;19.10;19.40
3067;DHT22;1544;48.834;9.194;2023-04-05T14:03:47;19.20;19.60
3067;DHT22;1544;48.834;9.194;2023-04-05T14:06:22;19.50;20.80
3067;DHT22;1544;48.834;9.194;2023-04-05T14:08:57;19.70;20.50
3067;DHT22;1544;48.834;9.194;2023-04-05T14:11:33;19.90;18.90
3067;DHT22;1544;48.834;9.194;2023-04-05T14:14:08;19.80;19.90
3067;DHT22;1544;48.834;9.194;2023-04-05T14:16:43;19.00;18.40
3067;DHT22;1544;48.834;9.194;2023-04-05T14:19:19;19.60;20.50
3067;DHT22;1544;48.834;9.194;2023-04-05T14:21:54;19.70;20.10
3067;DHT22;1544;48.834;9.194;2023-04-05T14:24:29;19.90;20.50
3067;DHT22;1544;48.834;9.194;2023-04-05T14:27:04;20.10;20.10
3067;DHT22;1544;48.834;9.194;2023-04-05T14:29:39;20.20;19.50
3067;DHT22;1544;48.834;9.194;2023-04-05T14:32:14;20.30;19.80
3067;DHT22;1544;48.834;9.194;2023-04-05T14:34:49;20.40;19.30
3067;DHT22;1544;48.834;9.194;2023-04-05T14:37:24;20.60;20.20
3067;DHT22;1544;48.834;9.194;2023-04-05T14:39:59;20.70;19.30
3067;DHT22;1544;48.834;9.194;2023-04-05T14:42:34;20.80;19.50
3067;DHT22;1544;48.834;9.194;2023-04-05T14:45:23;20.80;18.60
3067;DHT22;1544;48.834;9.194;2023-04-05T14:48:00;20.70;18.60
3067;DHT22;1544;48.834;9.194;2023-04-05T14:50:36;20.80;18.50
3067;DHT22;1544;48.834;9.194;2023-04-05T14:53:11;20.90;20.20
3067;DHT22;1544;48.834;9.194;2023-04-05T14:55:46;21.00;18.70
3067;DHT22;1544;48.834;9.194;2023-04-05T14:58:21;21.00;19.70
3067;DHT22;1544;48.834;9.194;2023-04-05T15:00:56;21.00;19.40
3067;DHT22;1544;48.834;9.194;2023-04-05T15:03:31;21.10;19.10
3067;DHT22;1544;48.834;9.194;2023-04-05T15:06:06;20.90;16.70
3067;DHT22;1544;48.834;9.194;2023-04-05T15:08:41;20.50;16.60
3067;DHT22;1544;48.834;9.194;2023-04-05T15:11:16;20.30;19.80
3067;DHT22;1544;48.834;9.194;2023-04-05T15:13:51;20.30;18.20
3067;DHT22;1544;48.834;9.194;2023-04-05T15:16:26;20.30;17.30
3067;DHT22;1544;48.834;9.194;2023-04-05T15:19:01;20.40;18.60
3067;DHT22;1544;48.834;9.194;2023-04-05T15:21:36;20.50;17.50
3067;DHT22;1544;48.834;9.194;2023-04-05T15:24:12;20.60;18.70
3067;DHT22;1544;48.834;9.194;2023-04-05T15:26:47;20.70;19.80
3067;DHT22;1544;48.834;9.194;2023-04-05T15:29:22;20.80;20.40
3067;DHT22;1544;48.834;9.194;2023-04-05T15:31:57;21.00;19.70
3067;DHT22;1544;48.834;9.194;2023-04-05T15:34:33;21.00;18.20
3067;DHT22;1544;48.834;9.194;2023-04-05T15:37:07;21.00;18.10
3067;DHT22;1544;48.834;9.194;2023-04-05T15:39:43;20.90;17.70
3067;DHT22;1544;48.834;9.194;2023-04-05T15:42:19;20.80;19.30
3067;DHT22;1544;48.834;9.194;2023-04-05T15:44:57;20.90;18.50
3067;DHT22;1544;48.834;9.194;2023-04-05T15:47:32;20.90;19.40
3067;DHT22;1544;48.834;9.194;2023-04-05T15:50:07;20.90;19.50
3067;DHT22;1544;48.834;9.194;2023-04-05T15:52:42;21.00;19.20
3067;DHT22;1544;48.834;9.194;2023-04-05T15:55:17;21.10;19.70
3067;DHT22;1544;48.834;9.194;2023-04-05T15:57:55;21.20;18.80
3067;DHT22;1544;48.834;9.194;2023-04-05T16:00:30;21.30;19.90
3067;DHT22;1544;48.834;9.194;2023-04-05T16:03:06;21.30;19.90
3067;DHT22;1544;48.834;9.194;2023-04-05T16:05:41;21.40;19.90
3067;DHT22;1544;48.834;9.194;2023-04-05T16:08:16;21.40;19.90
3067;DHT22;1544;48.834;9.194;2023-04-05T16:10:51;21.40;19.50
3067;DHT22;1544;48.834;9.194;2023-04-05T16:13:26;21.50;19.60
3067;DHT22;1544;48.834;9.194;2023-04-05T16:16:01;21.40;19.20
3067;DHT22;1544;48.834;9.194;2023-04-05T16:18:36;21.30;19.50
3067;DHT22;1544;48.834;9.194;2023-04-05T16:21:12;21.30;19.40
3067;DHT22;1544;48.834;9.194;2023-04-05T16:23:49;21.20;19.70
3067;DHT22;1544;48.834;9.194;2023-04-05T16:26:25;21.20;19.30
3067;DHT22;1544;48.834;9.194;2023-04-05T16:29:00;21.20;18.70
3067;DHT22;1544;48.834;9.194;2023-04-05T16:31:36;21.00;18.90
3067;DHT22;1544;48.834;9.194;2023-04-05T16:34:12;20.90;19.80
3067;DHT22;1544;48.834;9.194;2023-04-05T16:36:47;20.70;19.10
3067;DHT22;1544;48.834;9.194;2023-04-05T16:39:22;20.60;19.50
3067;DHT22;1544;48.834;9.194;2023-04-05T16:41:57;20.50;19.20
3067;DHT22;1544;48.834;9.194;2023-04-05T16:44:32;20.30;19.90
3067;DHT22;1544;48.834;9.194;2023-04-05T16:47:07;20.10;18.60
3067;DHT22;1544;48.834;9.194;2023-04-05T16:49:42;19.90;18.50
3067;DHT22;1544;48.834;9.194;2023-04-05T16:52:17;19.60;17.90
3067;DHT22;1544;48.834;9.194;2023-04-05T16:54:52;19.30;17.20
3067;DHT22;1544;48.834;9.194;2023-04-05T16:57:27;18.90;17.40
3067;DHT22;1544;48.834;9.194;2023-04-05T17:00:02;18.70;17.40
3067;DHT22;1544;48.834;9.194;2023-04-05T17:02:38;18.40;17.90
3067;DHT22;1544;48.834;9.194;2023-04-05T17:05:13;18.20;18.90
3067;DHT22;1544;48.834;9.194;2023-04-05T17:07:48;18.00;18.50
3067;DHT22;1544;48.834;9.194;2023-04-05T17:10:22;17.80;18.50
3067;DHT22;1544;48.834;9.194;2023-04-05T17:12:58;17.60;18.30
3067;DHT22;1544;48.834;9.194;2023-04-05T17:15:32;17.30;18.70
3067;DHT22;1544;48.834;9.194;2023-04-05T17:18:08;16.90;18.30
3067;DHT22;1544;48.834;9.194;2023-04-05T17:20:43;16.60;18.20
3067;DHT22;1544;48.834;9.194;2023-04-05T17:23:17;16.20;18.90
3067;DHT22;1544;48.834;9.194;2023-04-05T17:25:52;16.00;18.90
3067;DHT22;1544;48.834;9.194;2023-04-05T17:28:28;15.70;19.00
3067;DHT22;1544;48.834;9.194;2023-04-05T17:31:04;15.50;19.20
3067;DHT22;1544;48.834;9.194;2023-04-05T17:33:40;15.30;19.50
3067;DHT22;1544;48.834;9.194;2023-04-05T17:36:15;15.00;19.50
3067;DHT22;1544;48.834;9.194;2023-04-05T17:38:53;14.80;19.40
3067;DHT22;1544;48.834;9.194;2023-04-05T17:41:29;14.50;19.00
3067;DHT22;1544;48.834;9.194;2023-04-05T17:44:04;14.30;19.40
3067;DHT22;1544;48.834;9.194;2023-04-05T17:46:39;14.10;19.30
3067;DHT22;1544;48.834;9.194;2023-04-05T17:49:22;13.90;19.50
3067;DHT22;1544;48.834;9.194;2023-04-05T17:51:58;13.70;19.40
3067;DHT22;1544;48.834;9.194;2023-04-05T17:54:33;13.50;19.40
3067;DHT22;1544;48.834;9.194;2023-04-05T17:57:11;13.30;19.50